East Mc Keesport, Pennsylvania
Current Conditions -  °F | °C
As of 6:00 AM on Thursday 27 Nov 2014 (Local Time) from KAGC Reporting Station
Haze Haze  
Wind Chill: 27°   Ceiling: 500
Heat Index: 32°   Visibility: 1mi
Dew Point: 29°   Wind: 5mph
Humidity: 88%   Direction: 270°W
Pressure: 29.99"   Gusts: NA
Location:  40.3847°N, 79.8073°W
Report Text: KAGC 271100Z 27004KT 1SM R28/P6000FT BR BKN005 BKN029 OVC041 00/M02 A2999 RMK AO2 T00001017
Loading
Personal Weather Stations






























Interactive Weather Map New forecast layout! Learn more

10-Day Weather Forecast

Advertisements
Track Severe Weather on mobile